Time;durP1;ratioP1;P1;durP2;ratioP2;P2;SDS_P1;SDS_P2;PMS_P1;PMS_P2;Temp;Humidity;BMP_temperature;BMP_pressure;BME280_temperature;BME280_humidity;BME280_pressure;Samples;Min_cycle;Max_cycle;Signal;HPM_P1;HPM_P2
2023/04/15 00:02:20;;;;;;;;;;;6.80;67.70;;;;;;5060492;28;19932;-76
2023/04/15 00:04:46;;;;;;;;;;;6.80;67.80;;;;;;5058318;28;20562;-76
2023/04/15 00:07:11;;;;;;;;;;;6.70;67.80;;;;;;5054856;28;19928;-76
2023/04/15 00:09:37;;;;;;;;;;;6.70;67.80;;;;;;5039726;28;20388;-77
2023/04/15 00:12:02;;;;;;;;;;;6.70;67.80;;;;;;5023044;28;20510;-77
2023/04/15 00:14:28;;;;;;;;;;;6.70;67.90;;;;;;5056406;28;19975;-75
2023/04/15 00:16:55;;;;;;;;;;;6.60;67.90;;;;;;5023549;28;20485;-77
2023/04/15 00:19:20;;;;;;;;;;;6.60;67.90;;;;;;5043691;28;19920;-76
2023/04/15 00:21:46;;;;;;;;;;;6.60;67.90;;;;;;5056429;28;19932;-76
2023/04/15 00:24:12;;;;;;;;;;;6.50;67.90;;;;;;5026604;28;20490;-76
2023/04/15 00:26:37;;;;;;;;;;;6.50;67.90;;;;;;5044934;28;19917;-75
2023/04/15 00:29:03;;;;;;;;;;;6.50;68.00;;;;;;5065581;28;19925;-77
2023/04/15 00:31:28;;;;;;;;;;;6.50;68.00;;;;;;5056259;28;19937;-77
2023/04/15 00:33:54;;;;;;;;;;;6.40;68.00;;;;;;5026675;28;20019;-77
2023/04/15 00:36:19;;;;;;;;;;;6.40;68.00;;;;;;5028098;28;20027;-77
2023/04/15 00:38:45;;;;;;;;;;;6.40;68.00;;;;;;5059258;28;20489;-77
2023/04/15 00:41:10;;;;;;;;;;;6.40;68.10;;;;;;5021804;28;19921;-77
2023/04/15 00:43:37;;;;;;;;;;;6.40;68.10;;;;;;5051314;28;19974;-77
2023/04/15 00:46:03;;;;;;;;;;;6.40;68.10;;;;;;5053879;28;19978;-77
2023/04/15 00:48:29;;;;;;;;;;;6.40;68.90;;;;;;5050759;28;20347;-77
2023/04/15 00:50:54;;;;;;;;;;;6.30;68.00;;;;;;5055734;28;19929;-77
2023/04/15 00:53:20;;;;;;;;;;;6.30;68.10;;;;;;5022974;28;19928;-77
2023/04/15 00:55:45;;;;;;;;;;;6.30;68.10;;;;;;5025984;28;20332;-77
2023/04/15 00:58:11;;;;;;;;;;;6.30;68.10;;;;;;5061345;28;19952;-76
2023/04/15 01:00:36;;;;;;;;;;;6.30;68.10;;;;;;5024002;28;20020;-76
2023/04/15 01:03:02;;;;;;;;;;;6.30;68.10;;;;;;5021240;28;19921;-77
2023/04/15 01:05:27;;;;;;;;;;;6.30;68.10;;;;;;5056549;28;19927;-77
2023/04/15 01:07:53;;;;;;;;;;;6.30;68.20;;;;;;5056704;28;19925;-77
2023/04/15 01:10:19;;;;;;;;;;;6.20;68.20;;;;;;5057107;28;20342;-77
2023/04/15 01:12:44;;;;;;;;;;;6.20;68.20;;;;;;5056009;28;19928;-77
2023/04/15 01:15:10;;;;;;;;;;;6.20;68.20;;;;;;5043424;28;20132;-77
2023/04/15 01:17:36;;;;;;;;;;;6.20;68.20;;;;;;5041060;28;19995;-76
2023/04/15 01:20:01;;;;;;;;;;;6.20;68.20;;;;;;5027903;28;19921;-77
2023/04/15 01:22:27;;;;;;;;;;;6.20;68.20;;;;;;5062970;28;19920;-75
2023/04/15 01:25:00;;;;;;;;;;;6.20;68.20;;;;;;5027220;28;20438;-77
2023/04/15 01:27:26;;;;;;;;;;;6.20;68.20;;;;;;5056532;28;19932;-77
2023/04/15 01:29:51;;;;;;;;;;;6.20;68.30;;;;;;5058159;28;20828;-77
2023/04/15 01:32:17;;;;;;;;;;;6.20;68.30;;;;;;5056410;28;19936;-77
2023/04/15 01:34:42;;;;;;;;;;;6.20;68.30;;;;;;5054289;28;19960;-76
2023/04/15 01:37:08;;;;;;;;;;;6.20;68.30;;;;;;5055379;28;19936;-77
2023/04/15 01:39:34;;;;;;;;;;;6.20;68.30;;;;;;5043022;28;19935;-77
2023/04/15 01:41:59;;;;;;;;;;;6.20;68.30;;;;;;5044936;28;19920;-77
2023/04/15 01:44:25;;;;;;;;;;;6.20;68.40;;;;;;5020164;28;20005;-77
2023/04/15 01:46:50;;;;;;;;;;;6.20;68.40;;;;;;5045137;28;19920;-76
2023/04/15 01:49:16;;;;;;;;;;;6.20;68.40;;;;;;5034122;28;19925;-77
2023/04/15 01:51:41;;;;;;;;;;;6.20;68.40;;;;;;5051168;28;19924;-77
2023/04/15 01:54:07;;;;;;;;;;;6.20;68.40;;;;;;5059960;28;19943;-77
2023/04/15 01:56:32;;;;;;;;;;;6.20;68.40;;;;;;5044747;28;19991;-77
2023/04/15 01:58:58;;;;;;;;;;;6.20;68.40;;;;;;5049055;28;19925;-77
2023/04/15 02:01:23;;;;;;;;;;;6.10;68.40;;;;;;5065844;28;19944;-77
2023/04/15 02:03:49;;;;;;;;;;;6.10;68.30;;;;;;5048380;28;19928;-75
2023/04/15 02:06:14;;;;;;;;;;;6.10;68.40;;;;;;5046201;28;20412;-78
2023/04/15 02:08:40;;;;;;;;;;;6.10;68.30;;;;;;5032812;28;19981;-76
2023/04/15 02:11:05;;;;;;;;;;;6.10;68.40;;;;;;5046163;28;20545;-77
2023/04/15 02:13:31;;;;;;;;;;;6.10;68.40;;;;;;5043253;28;19970;-77
2023/04/15 02:15:56;;;;;;;;;;;6.10;68.30;;;;;;5028700;28;19920;-77
2023/04/15 02:18:21;;;;;;;;;;;6.10;68.40;;;;;;5064659;28;20303;-77
2023/04/15 02:20:47;;;;;;;;;;;6.10;68.40;;;;;;5039048;28;19925;-77
2023/04/15 02:23:13;;;;;;;;;;;6.10;68.40;;;;;;5055596;28;20013;-77
2023/04/15 02:25:38;;;;;;;;;;;6.10;68.40;;;;;;5040453;28;19927;-76
2023/04/15 02:28:05;;;;;;;;;;;6.10;68.50;;;;;;5052188;28;19924;-77
2023/04/15 02:30:30;;;;;;;;;;;6.10;68.40;;;;;;5065528;28;20011;-76
2023/04/15 02:32:56;;;;;;;;;;;6.10;68.50;;;;;;5069598;28;19920;-77
2023/04/15 02:35:24;;;;;;;;;;;6.10;68.40;;;;;;5033963;28;19925;-77
2023/04/15 02:37:50;;;;;;;;;;;6.00;68.40;;;;;;5034972;28;19928;-77
2023/04/15 02:40:15;;;;;;;;;;;6.10;68.50;;;;;;5061760;28;19921;-77
2023/04/15 02:42:41;;;;;;;;;;;6.10;68.50;;;;;;5057765;28;19921;-76
2023/04/15 02:45:07;;;;;;;;;;;6.00;68.50;;;;;;5062886;28;19920;-77
2023/04/15 02:47:33;;;;;;;;;;;6.00;68.50;;;;;;5036120;28;19978;-76
2023/04/15 02:50:00;;;;;;;;;;;6.00;68.50;;;;;;5037990;28;19960;-77
2023/04/15 02:52:26;;;;;;;;;;;6.00;68.50;;;;;;5056171;28;20097;-78
2023/04/15 02:54:53;;;;;;;;;;;6.00;68.50;;;;;;5036208;28;20011;-78
2023/04/15 02:57:18;;;;;;;;;;;6.00;68.50;;;;;;5052630;28;19927;-77
2023/04/15 02:59:44;;;;;;;;;;;6.00;68.50;;;;;;5063221;28;19920;-78
2023/04/15 03:02:10;;;;;;;;;;;6.00;68.60;;;;;;5055608;28;19924;-77
2023/04/15 03:04:35;;;;;;;;;;;6.00;68.60;;;;;;5033718;28;19917;-77
2023/04/15 03:07:00;;;;;;;;;;;6.00;68.60;;;;;;5061212;28;20419;-77
2023/04/15 03:09:26;;;;;;;;;;;6.00;68.60;;;;;;5066672;28;19944;-76
2023/04/15 03:11:53;;;;;;;;;;;6.00;68.60;;;;;;5047298;28;20046;-77
2023/04/15 03:14:19;;;;;;;;;;;5.90;68.50;;;;;;5036735;28;19920;-77
2023/04/15 03:16:44;;;;;;;;;;;6.00;68.70;;;;;;5036603;28;19920;-77
2023/04/15 03:19:10;;;;;;;;;;;6.00;68.70;;;;;;5035798;28;19925;-77
2023/04/15 03:21:35;;;;;;;;;;;5.90;68.60;;;;;;5061128;28;19927;-77
2023/04/15 03:24:01;;;;;;;;;;;5.90;68.60;;;;;;5067670;28;19927;-78
2023/04/15 03:26:27;;;;;;;;;;;5.90;68.60;;;;;;5064443;28;19920;-77
2023/04/15 03:28:52;;;;;;;;;;;5.90;68.70;;;;;;5051842;28;19920;-77
2023/04/15 03:31:18;;;;;;;;;;;5.90;68.70;;;;;;5048436;28;19977;-77
2023/04/15 03:33:43;;;;;;;;;;;5.90;68.70;;;;;;5048270;28;19920;-77
2023/04/15 03:36:09;;;;;;;;;;;5.80;68.70;;;;;;5023175;28;19948;-77
2023/04/15 03:38:34;;;;;;;;;;;5.90;68.80;;;;;;5047526;28;19928;-76
2023/04/15 03:41:00;;;;;;;;;;;5.90;68.80;;;;;;5061239;28;19927;-77
2023/04/15 03:43:26;;;;;;;;;;;5.80;68.70;;;;;;5056613;28;19920;-77
2023/04/15 03:45:51;;;;;;;;;;;5.90;68.80;;;;;;5050001;28;19924;-77
2023/04/15 03:48:16;;;;;;;;;;;5.80;68.70;;;;;;5060549;28;19924;-76
2023/04/15 03:50:42;;;;;;;;;;;5.80;68.80;;;;;;5049769;28;19959;-78
2023/04/15 03:53:07;;;;;;;;;;;5.80;68.80;;;;;;5053190;28;19962;-77
2023/04/15 03:55:33;;;;;;;;;;;5.80;68.80;;;;;;5065257;28;19927;-77
2023/04/15 03:57:58;;;;;;;;;;;5.80;68.80;;;;;;5035645;28;19952;-77
2023/04/15 04:00:24;;;;;;;;;;;5.80;68.80;;;;;;5059423;28;20602;-78
2023/04/15 04:02:49;;;;;;;;;;;5.80;68.80;;;;;;5045278;28;19916;-76
2023/04/15 04:05:15;;;;;;;;;;;5.80;68.80;;;;;;5049320;28;20370;-77
2023/04/15 04:07:41;;;;;;;;;;;5.70;68.80;;;;;;5049838;28;19916;-77
2023/04/15 04:10:06;;;;;;;;;;;5.80;68.80;;;;;;5061661;28;19920;-77
2023/04/15 04:12:32;;;;;;;;;;;5.80;68.80;;;;;;5049812;28;20030;-76
2023/04/15 04:14:57;;;;;;;;;;;5.70;68.80;;;;;;5047437;28;19920;-77
2023/04/15 04:17:23;;;;;;;;;;;5.70;68.80;;;;;;5059376;28;20009;-77
2023/04/15 04:19:48;;;;;;;;;;;5.70;68.80;;;;;;5046584;28;19920;-77
2023/04/15 04:22:13;;;;;;;;;;;5.70;68.90;;;;;;5042285;28;20027;-78
2023/04/15 04:24:39;;;;;;;;;;;5.70;69.00;;;;;;5048702;28;20233;-77
2023/04/15 04:27:05;;;;;;;;;;;5.60;68.90;;;;;;5052208;28;19924;-78
2023/04/15 04:29:30;;;;;;;;;;;5.60;69.00;;;;;;5062790;28;20331;-77
2023/04/15 04:31:56;;;;;;;;;;;5.60;69.30;;;;;;5029524;28;20895;-78
2023/04/15 04:34:21;;;;;;;;;;;5.60;69.00;;;;;;5046456;28;19925;-77
2023/04/15 04:36:46;;;;;;;;;;;5.60;69.00;;;;;;5022515;28;19999;-77
2023/04/15 04:39:12;;;;;;;;;;;5.60;69.00;;;;;;5046692;28;19928;-77
2023/04/15 04:41:37;;;;;;;;;;;5.60;69.00;;;;;;5026253;28;19920;-76
2023/04/15 04:44:03;;;;;;;;;;;5.60;69.00;;;;;;5056637;28;19927;-76
2023/04/15 04:46:28;;;;;;;;;;;5.50;69.00;;;;;;5055402;28;19920;-77
2023/04/15 04:48:54;;;;;;;;;;;5.60;69.10;;;;;;5043827;28;20559;-77
2023/04/15 04:51:20;;;;;;;;;;;5.60;69.10;;;;;;5044938;28;19955;-78
2023/04/15 04:53:45;;;;;;;;;;;5.60;69.10;;;;;;5049432;28;19960;-77
2023/04/15 04:56:11;;;;;;;;;;;5.60;69.10;;;;;;5022812;28;20359;-77
2023/04/15 04:58:37;;;;;;;;;;;5.60;69.10;;;;;;5032224;28;19932;-77
2023/04/15 05:01:02;;;;;;;;;;;5.50;69.10;;;;;;5029392;28;20450;-77
2023/04/15 05:03:28;;;;;;;;;;;5.50;69.10;;;;;;5030240;28;19928;-77
2023/04/15 05:05:53;;;;;;;;;;;5.60;69.10;;;;;;5059402;28;19920;-77
2023/04/15 05:08:19;;;;;;;;;;;5.60;69.10;;;;;;5047467;28;19921;-77
2023/04/15 05:10:45;;;;;;;;;;;5.60;69.10;;;;;;5047000;28;19924;-77
2023/04/15 05:13:11;;;;;;;;;;;5.60;69.10;;;;;;5048654;28;19927;-77
2023/04/15 05:15:38;;;;;;;;;;;5.60;69.20;;;;;;5059352;28;20038;-76
2023/04/15 05:18:03;;;;;;;;;;;5.60;69.90;;;;;;5044091;28;19959;-77
2023/04/15 05:20:29;;;;;;;;;;;5.60;69.10;;;;;;5041602;28;19968;-77
2023/04/15 05:22:54;;;;;;;;;;;5.70;69.20;;;;;;5032010;28;19966;-78
2023/04/15 05:25:20;;;;;;;;;;;5.70;69.10;;;;;;5050117;28;19924;-78
2023/04/15 05:27:45;;;;;;;;;;;5.70;69.10;;;;;;5063450;28;20409;-77
2023/04/15 05:30:11;;;;;;;;;;;5.70;69.10;;;;;;5053368;28;19956;-78
2023/04/15 05:32:37;;;;;;;;;;;5.70;69.90;;;;;;5064355;28;19986;-77
2023/04/15 05:35:02;;;;;;;;;;;5.70;69.10;;;;;;5054134;28;19925;-77
2023/04/15 05:37:28;;;;;;;;;;;5.80;69.10;;;;;;5067196;28;19923;-76
2023/04/15 05:39:53;;;;;;;;;;;5.80;69.10;;;;;;5029507;28;20636;-77
2023/04/15 05:42:19;;;;;;;;;;;5.80;69.10;;;;;;5033548;28;19927;-78
2023/04/15 05:44:44;;;;;;;;;;;5.80;69.10;;;;;;5041239;28;20560;-77
2023/04/15 05:47:10;;;;;;;;;;;5.80;69.00;;;;;;5041040;28;19925;-75
2023/04/15 05:49:35;;;;;;;;;;;5.80;69.00;;;;;;5027063;28;19921;-76
2023/04/15 05:52:01;;;;;;;;;;;5.90;69.10;;;;;;5047020;28;19971;-77
2023/04/15 05:54:26;;;;;;;;;;;5.90;69.10;;;;;;5046516;28;20387;-77
2023/04/15 05:56:52;;;;;;;;;;;6.00;69.10;;;;;;5027386;28;19921;-77
2023/04/15 05:59:17;;;;;;;;;;;6.00;69.10;;;;;;5032619;28;19929;-77
2023/04/15 06:01:44;;;;;;;;;;;6.00;69.80;;;;;;5032795;28;19978;-78
2023/04/15 06:04:10;;;;;;;;;;;6.10;69.10;;;;;;5027299;28;20008;-78
2023/04/15 06:06:36;;;;;;;;;;;6.10;69.00;;;;;;5029732;28;19921;-74
2023/04/15 06:09:01;;;;;;;;;;;6.20;69.00;;;;;;5046520;28;19926;-78
2023/04/15 06:11:27;;;;;;;;;;;6.20;69.00;;;;;;5045975;28;19929;-77
2023/04/15 06:13:52;;;;;;;;;;;6.30;69.00;;;;;;5041208;28;20004;-77
2023/04/15 06:16:17;;;;;;;;;;;6.30;68.90;;;;;;5031063;28;20553;-77
2023/04/15 06:18:43;;;;;;;;;;;6.40;68.90;;;;;;5032612;28;19952;-76
2023/04/15 06:21:08;;;;;;;;;;;6.40;68.90;;;;;;5029887;28;19970;-78
2023/04/15 06:23:35;;;;;;;;;;;6.50;68.90;;;;;;5041031;28;19933;-77
2023/04/15 06:26:00;;;;;;;;;;;6.60;68.90;;;;;;5047409;28;19977;-77
2023/04/15 06:28:26;;;;;;;;;;;6.60;68.80;;;;;;5033017;28;20083;-75
2023/04/15 06:30:51;;;;;;;;;;;6.70;68.80;;;;;;5029308;28;19931;-78
2023/04/15 06:33:17;;;;;;;;;;;6.70;68.80;;;;;;5031226;28;19925;-78
2023/04/15 06:35:42;;;;;;;;;;;6.80;68.80;;;;;;5035491;28;20446;-78
2023/04/15 06:38:08;;;;;;;;;;;6.80;68.70;;;;;;5042263;28;19968;-78
2023/04/15 06:40:33;;;;;;;;;;;6.90;68.70;;;;;;5026262;28;19928;-77
2023/04/15 06:42:59;;;;;;;;;;;6.90;68.70;;;;;;5027791;28;20563;-77
2023/04/15 06:45:24;;;;;;;;;;;7.00;68.70;;;;;;5029575;28;19964;-77
2023/04/15 06:47:50;;;;;;;;;;;7.00;68.60;;;;;;5054269;28;20406;-78
2023/04/15 06:50:15;;;;;;;;;;;7.10;68.60;;;;;;5055552;28;19960;-78
2023/04/15 06:52:41;;;;;;;;;;;7.10;68.60;;;;;;5040855;28;19925;-77
2023/04/15 06:55:07;;;;;;;;;;;7.20;68.60;;;;;;5061430;28;19928;-75
2023/04/15 06:57:32;;;;;;;;;;;7.30;68.60;;;;;;5028668;28;19947;-77
2023/04/15 06:59:57;;;;;;;;;;;7.30;68.50;;;;;;5026060;28;19920;-76
2023/04/15 07:02:23;;;;;;;;;;;7.40;68.60;;;;;;5044770;28;20727;-75
2023/04/15 07:04:49;;;;;;;;;;;7.50;68.50;;;;;;5025450;28;19917;-76
2023/04/15 07:07:16;;;;;;;;;;;7.60;68.50;;;;;;5063837;28;19964;-77
2023/04/15 07:09:41;;;;;;;;;;;7.60;68.40;;;;;;5052592;28;19925;-75
2023/04/15 07:12:07;;;;;;;;;;;7.70;68.40;;;;;;5043969;28;19982;-77
2023/04/15 07:14:32;;;;;;;;;;;7.70;68.30;;;;;;5060925;28;19925;-76
2023/04/15 07:16:58;;;;;;;;;;;7.80;68.30;;;;;;5060344;28;20509;-77
2023/04/15 07:19:23;;;;;;;;;;;7.90;68.30;;;;;;5036045;28;20011;-77
2023/04/15 07:21:49;;;;;;;;;;;8.00;68.20;;;;;;5059570;28;19921;-76
2023/04/15 07:24:17;;;;;;;;;;;8.00;68.20;;;;;;5058899;28;19932;-79
2023/04/15 07:26:43;;;;;;;;;;;8.10;68.20;;;;;;5061909;28;20313;-76
2023/04/15 07:29:08;;;;;;;;;;;8.20;68.10;;;;;;5027297;28;19974;-75
2023/04/15 07:31:35;;;;;;;;;;;8.20;68.00;;;;;;5054619;28;19928;-77
2023/04/15 07:34:01;;;;;;;;;;;8.30;68.00;;;;;;5057226;28;19968;-76
2023/04/15 07:36:28;;;;;;;;;;;8.40;68.00;;;;;;5032775;28;19960;-78
2023/04/15 07:38:54;;;;;;;;;;;8.50;68.00;;;;;;5035036;28;19936;-77
2023/04/15 07:41:19;;;;;;;;;;;8.50;67.90;;;;;;5050527;28;19970;-76
2023/04/15 07:43:45;;;;;;;;;;;8.60;67.90;;;;;;5045371;28;19986;-77
2023/04/15 07:46:10;;;;;;;;;;;8.70;68.70;;;;;;5062037;28;20581;-78
2023/04/15 07:48:36;;;;;;;;;;;8.80;67.90;;;;;;5057222;28;19921;-77
2023/04/15 07:51:02;;;;;;;;;;;8.80;67.80;;;;;;5036606;28;20018;-78
2023/04/15 07:53:27;;;;;;;;;;;8.90;67.80;;;;;;5049416;28;20638;-77
2023/04/15 07:55:53;;;;;;;;;;;9.00;67.70;;;;;;5031552;28;19924;-77
2023/04/15 07:58:18;;;;;;;;;;;9.10;67.70;;;;;;5057386;28;20318;-78
2023/04/15 08:00:44;;;;;;;;;;;9.20;67.60;;;;;;5060938;28;19927;-77
2023/04/15 08:03:09;;;;;;;;;;;9.30;67.50;;;;;;5065209;28;20003;-78
2023/04/15 08:05:35;;;;;;;;;;;9.40;67.50;;;;;;5045693;28;20383;-77
2023/04/15 08:08:00;;;;;;;;;;;9.50;67.40;;;;;;5035032;28;20385;-79
2023/04/15 08:10:26;;;;;;;;;;;9.70;67.40;;;;;;5044492;28;19925;-78
2023/04/15 08:12:53;;;;;;;;;;;9.70;67.20;;;;;;5059234;28;19931;-78
2023/04/15 08:15:19;;;;;;;;;;;9.80;67.20;;;;;;5063232;28;19989;-78
2023/04/15 08:17:45;;;;;;;;;;;9.90;67.10;;;;;;5029109;28;19921;-77
2023/04/15 08:20:11;;;;;;;;;;;10.00;67.00;;;;;;5064027;28;19920;-78
2023/04/15 08:22:36;;;;;;;;;;;10.10;66.90;;;;;;5029687;28;19999;-77
2023/04/15 08:25:02;;;;;;;;;;;10.20;66.90;;;;;;5031510;28;19992;-78
2023/04/15 08:27:27;;;;;;;;;;;10.30;66.90;;;;;;5031541;28;20656;-77
2023/04/15 08:29:53;;;;;;;;;;;10.30;66.70;;;;;;5037743;28;19927;-78
2023/04/15 08:32:19;;;;;;;;;;;10.40;66.70;;;;;;5033727;28;19931;-78
2023/04/15 08:34:44;;;;;;;;;;;10.40;66.60;;;;;;5063433;28;19974;-77
2023/04/15 08:37:10;;;;;;;;;;;10.50;66.60;;;;;;5054096;28;19920;-78
2023/04/15 08:39:35;;;;;;;;;;;10.60;66.60;;;;;;5045258;28;19935;-77
2023/04/15 08:42:28;;;;;;;;;;;10.70;66.60;;;;;;5031220;28;20473;-77
2023/04/15 08:44:54;;;;;;;;;;;10.80;66.40;;;;;;5061814;28;20007;-77
2023/04/15 08:47:20;;;;;;;;;;;10.90;66.40;;;;;;5058479;28;20011;-78
2023/04/15 08:49:47;;;;;;;;;;;11.00;66.30;;;;;;5051204;28;20007;-78
2023/04/15 08:52:13;;;;;;;;;;;11.10;66.20;;;;;;5064339;28;19999;-78
2023/04/15 08:54:38;;;;;;;;;;;11.20;66.10;;;;;;5050861;28;20678;-78
2023/04/15 08:57:04;;;;;;;;;;;11.30;66.00;;;;;;5063224;28;19927;-77
2023/04/15 08:59:29;;;;;;;;;;;11.30;65.90;;;;;;5040391;28;19927;-78
2023/04/15 09:01:56;;;;;;;;;;;11.40;65.80;;;;;;5036907;28;19927;-78
2023/04/15 09:04:21;;;;;;;;;;;11.50;65.90;;;;;;5058166;28;19920;-78
2023/04/15 09:06:47;;;;;;;;;;;11.50;65.80;;;;;;5062567;28;19974;-77
2023/04/15 09:09:13;;;;;;;;;;;11.50;65.70;;;;;;5051560;28;19987;-78
2023/04/15 09:11:39;;;;;;;;;;;11.50;65.70;;;;;;5044637;28;19982;-77
2023/04/15 09:14:04;;;;;;;;;;;11.60;65.70;;;;;;5043445;28;20004;-79
2023/04/15 09:16:30;;;;;;;;;;;11.70;65.70;;;;;;5016870;28;19928;-79
2023/04/15 09:18:56;;;;;;;;;;;11.70;65.70;;;;;;5049382;28;19938;-79
2023/04/15 09:21:22;;;;;;;;;;;11.80;65.70;;;;;;5036305;28;19924;-78
2023/04/15 09:23:57;;;;;;;;;;;11.80;65.60;;;;;;5044637;28;19924;-78
2023/04/15 09:26:29;;;;;;;;;;;11.80;65.60;;;;;;5057997;28;19925;-79
2023/04/15 09:29:00;;;;;;;;;;;11.80;65.60;;;;;;5063348;28;19924;-78
2023/04/15 09:31:28;;;;;;;;;;;11.90;65.60;;;;;;5068299;28;19925;-79
2023/04/15 09:33:55;;;;;;;;;;;11.90;65.60;;;;;;5037527;28;19928;-78
2023/04/15 09:36:20;;;;;;;;;;;11.90;65.60;;;;;;5040239;28;19920;-78
2023/04/15 09:38:58;;;;;;;;;;;11.90;65.60;;;;;;5069394;28;20267;-78
2023/04/15 09:41:24;;;;;;;;;;;12.00;65.60;;;;;;5056940;28;20575;-78
2023/04/15 09:43:50;;;;;;;;;;;11.90;65.50;;;;;;5063893;28;19924;-79
2023/04/15 09:46:15;;;;;;;;;;;12.00;65.60;;;;;;5037140;28;20116;-78
2023/04/15 09:48:41;;;;;;;;;;;11.90;65.50;;;;;;5065895;28;19927;-78
2023/04/15 09:51:06;;;;;;;;;;;12.00;65.60;;;;;;5052403;28;19920;-77
2023/04/15 09:53:32;;;;;;;;;;;12.00;65.60;;;;;;5036580;28;19916;-78
2023/04/15 09:55:59;;;;;;;;;;;12.00;65.60;;;;;;5036821;28;19953;-78
2023/04/15 09:58:26;;;;;;;;;;;12.00;65.50;;;;;;5073727;28;19923;-78
2023/04/15 10:00:52;;;;;;;;;;;12.00;65.60;;;;;;5054584;28;20370;-79
2023/04/15 10:03:24;;;;;;;;;;;12.10;65.60;;;;;;5035446;28;21102;-78
2023/04/15 10:05:50;;;;;;;;;;;12.10;65.50;;;;;;5036356;28;19978;-78
2023/04/15 10:08:16;;;;;;;;;;;12.20;65.60;;;;;;5044628;28;19929;-79
2023/04/15 10:10:42;;;;;;;;;;;12.20;65.60;;;;;;5056090;28;19947;-78
2023/04/15 10:13:07;;;;;;;;;;;12.20;65.50;;;;;;5071448;28;19925;-78
2023/04/15 10:15:32;;;;;;;;;;;12.30;65.50;;;;;;5037293;28;20014;-78
2023/04/15 10:17:58;;;;;;;;;;;12.30;65.40;;;;;;5038286;28;20952;-78
2023/04/15 10:20:23;;;;;;;;;;;12.30;65.40;;;;;;5068176;28;19920;-78
2023/04/15 10:22:49;;;;;;;;;;;12.40;65.40;;;;;;5050258;28;19997;-77
2023/04/15 10:25:15;;;;;;;;;;;12.40;65.30;;;;;;5036711;28;19920;-77
2023/04/15 10:27:41;;;;;;;;;;;12.40;65.30;;;;;;5031240;28;19968;-78
2023/04/15 10:30:07;;;;;;;;;;;12.40;65.30;;;;;;5066049;28;19946;-77
2023/04/15 10:32:33;;;;;;;;;;;12.50;65.40;;;;;;5042368;28;19924;-77
2023/04/15 10:34:58;;;;;;;;;;;12.40;65.20;;;;;;5067211;28;19936;-77
2023/04/15 10:37:34;;;;;;;;;;;12.50;65.30;;;;;;5067257;28;19924;-78
2023/04/15 10:40:01;;;;;;;;;;;12.50;65.30;;;;;;5051943;28;19928;-78
2023/04/15 10:42:32;;;;;;;;;;;12.50;65.20;;;;;;5072130;28;19963;-78
2023/04/15 10:44:57;;;;;;;;;;;12.50;65.20;;;;;;5064910;28;21063;-77
2023/04/15 10:47:24;;;;;;;;;;;12.50;65.20;;;;;;5065813;28;19928;-79
2023/04/15 10:49:50;;;;;;;;;;;12.50;65.20;;;;;;5032003;28;19920;-77
2023/04/15 10:52:16;;;;;;;;;;;12.50;65.20;;;;;;5034002;28;19924;-78
2023/04/15 10:54:42;;;;;;;;;;;12.50;65.70;;;;;;5033463;28;20818;-77
2023/04/15 10:57:13;;;;;;;;;;;12.50;65.20;;;;;;5035307;28;19955;-77
2023/04/15 10:59:57;;;;;;;;;;;12.40;65.20;;;;;;5049771;28;19928;-78
2023/04/15 11:02:41;;;;;;;;;;;12.40;65.30;;;;;;5048682;28;20619;-77
2023/04/15 11:05:07;;;;;;;;;;;12.30;65.30;;;;;;5054540;28;20003;-78
2023/04/15 11:07:48;;;;;;;;;;;12.30;65.40;;;;;;5023014;28;20648;-78
2023/04/15 11:10:17;;;;;;;;;;;12.30;65.40;;;;;;5038010;28;19963;-77
2023/04/15 11:12:42;;;;;;;;;;;12.20;65.40;;;;;;5049908;28;20027;-79
2023/04/15 11:15:26;;;;;;;;;;;12.10;65.40;;;;;;5065861;28;19921;-77
2023/04/15 11:17:52;;;;;;;;;;;12.10;65.50;;;;;;5048889;28;19920;-78
2023/04/15 11:20:17;;;;;;;;;;;12.10;65.60;;;;;;5037400;28;20035;-77
2023/04/15 11:22:46;;;;;;;;;;;12.10;65.60;;;;;;5050180;28;19971;-77
2023/04/15 11:25:21;;;;;;;;;;;12.10;65.70;;;;;;5055256;28;20412;-79
2023/04/15 11:27:46;;;;;;;;;;;12.10;65.60;;;;;;5064936;28;20044;-79
2023/04/15 11:30:19;;;;;;;;;;;12.10;65.70;;;;;;5051533;28;19920;-78
2023/04/15 11:32:45;;;;;;;;;;;12.00;65.70;;;;;;5054448;28;20036;-78
2023/04/15 11:35:10;;;;;;;;;;;12.00;65.70;;;;;;5068784;28;20532;-78
2023/04/15 11:37:36;;;;;;;;;;;12.10;65.70;;;;;;5051723;28;19928;-79
2023/04/15 11:40:02;;;;;;;;;;;12.10;65.70;;;;;;5056673;28;19927;-78
2023/04/15 11:42:27;;;;;;;;;;;12.00;65.70;;;;;;5067459;28;20624;-76
2023/04/15 11:45:09;;;;;;;;;;;12.10;65.70;;;;;;5016469;28;19916;-77
2023/04/15 11:47:35;;;;;;;;;;;12.00;65.70;;;;;;5022779;28;19955;-77
2023/04/15 11:50:20;;;;;;;;;;;12.10;65.80;;;;;;5038109;28;19959;-78
2023/04/15 11:52:52;;;;;;;;;;;12.10;65.80;;;;;;5048270;28;20536;-78
2023/04/15 11:55:17;;;;;;;;;;;12.00;65.70;;;;;;5050874;28;19936;-77
2023/04/15 11:57:43;;;;;;;;;;;12.00;65.70;;;;;;5064752;28;19924;-77
2023/04/15 12:00:09;;;;;;;;;;;12.10;65.80;;;;;;5050191;28;20948;-77
2023/04/15 12:02:37;;;;;;;;;;;12.10;65.70;;;;;;5035625;28;20681;-77
2023/04/15 12:05:04;;;;;;;;;;;12.10;65.80;;;;;;5039223;28;19927;-78
2023/04/15 12:07:29;;;;;;;;;;;12.10;65.80;;;;;;5050495;28;19920;-78
2023/04/15 12:09:55;;;;;;;;;;;12.10;65.80;;;;;;5051011;28;20562;-78
2023/04/15 12:12:21;;;;;;;;;;;12.00;65.70;;;;;;5069720;28;19924;-78
2023/04/15 12:14:46;;;;;;;;;;;12.00;65.70;;;;;;5034445;28;19920;-79
2023/04/15 12:17:12;;;;;;;;;;;12.00;65.70;;;;;;5048653;28;19926;-78
2023/04/15 12:19:38;;;;;;;;;;;12.10;65.80;;;;;;5035136;28;19925;-78
2023/04/15 12:22:05;;;;;;;;;;;12.00;65.80;;;;;;5035918;28;19956;-78
2023/04/15 12:24:31;;;;;;;;;;;12.00;65.90;;;;;;5066802;28;19927;-79
2023/04/15 12:26:56;;;;;;;;;;;12.00;65.90;;;;;;5052362;28;19921;-77
2023/04/15 12:29:26;;;;;;;;;;;11.90;65.80;;;;;;5062441;28;19917;-78
2023/04/15 12:31:52;;;;;;;;;;;11.90;65.90;;;;;;5061613;28;20464;-79
2023/04/15 12:34:25;;;;;;;;;;;11.90;66.00;;;;;;5049179;28;19948;-79
2023/04/15 12:36:51;;;;;;;;;;;11.90;66.00;;;;;;5047284;28;19920;-79
2023/04/15 12:39:16;;;;;;;;;;;11.80;65.90;;;;;;5019897;28;19929;-79
2023/04/15 12:41:42;;;;;;;;;;;11.80;66.00;;;;;;5052410;28;19966;-78
2023/04/15 12:44:07;;;;;;;;;;;11.80;66.10;;;;;;5052800;28;19925;-78
2023/04/15 12:46:33;;;;;;;;;;;11.80;66.20;;;;;;5049843;28;19949;-78
2023/04/15 12:48:59;;;;;;;;;;;11.80;66.20;;;;;;5035391;28;19966;-78
2023/04/15 12:51:26;;;;;;;;;;;11.80;66.20;;;;;;5047038;28;19928;-78
2023/04/15 12:53:51;;;;;;;;;;;11.80;66.20;;;;;;5048662;28;19920;-79
2023/04/15 12:56:17;;;;;;;;;;;11.80;66.20;;;;;;5034461;28;20453;-81
2023/04/15 12:58:42;;;;;;;;;;;11.80;66.20;;;;;;5061786;28;19967;-78
2023/04/15 13:01:09;;;;;;;;;;;11.80;66.20;;;;;;5063603;28;19982;-78
2023/04/15 13:03:34;;;;;;;;;;;11.80;66.30;;;;;;5039668;28;19924;-77
2023/04/15 13:06:01;;;;;;;;;;;11.80;66.20;;;;;;5049594;28;19921;-79
2023/04/15 13:08:26;;;;;;;;;;;11.80;66.20;;;;;;5036757;28;20395;-78
2023/04/15 13:10:52;;;;;;;;;;;11.80;66.20;;;;;;5048502;28;19942;-78
2023/04/15 13:13:17;;;;;;;;;;;11.80;66.20;;;;;;5051703;28;19978;-78
2023/04/15 13:15:44;;;;;;;;;;;11.80;66.20;;;;;;5051663;28;19956;-77
2023/04/15 13:18:10;;;;;;;;;;;11.90;66.30;;;;;;5065023;28;19931;-79
2023/04/15 13:20:35;;;;;;;;;;;11.90;66.30;;;;;;5045539;28;19921;-78
2023/04/15 13:23:01;;;;;;;;;;;11.90;66.30;;;;;;5055608;28;20422;-78
2023/04/15 13:25:26;;;;;;;;;;;11.90;66.20;;;;;;5070786;28;19986;-78
2023/04/15 13:27:52;;;;;;;;;;;11.90;66.20;;;;;;5046403;28;19921;-78
2023/04/15 13:30:17;;;;;;;;;;;11.90;66.30;;;;;;5034751;28;19932;-76
2023/04/15 13:32:43;;;;;;;;;;;11.90;66.20;;;;;;5038402;28;19931;-78
2023/04/15 13:35:08;;;;;;;;;;;11.90;66.30;;;;;;5052069;28;20032;-78
2023/04/15 13:37:34;;;;;;;;;;;11.90;66.20;;;;;;5049234;28;19917;-78
2023/04/15 13:39:59;;;;;;;;;;;12.00;66.30;;;;;;5031683;28;20417;-78
2023/04/15 13:42:26;;;;;;;;;;;11.90;67.10;;;;;;5049759;28;20388;-78
2023/04/15 13:44:51;;;;;;;;;;;12.00;66.30;;;;;;5048857;28;19932;-78
2023/04/15 13:47:20;;;;;;;;;;;11.90;66.30;;;;;;5048482;28;19921;-77
2023/04/15 13:49:45;;;;;;;;;;;11.90;66.20;;;;;;5047597;28;19999;-78
2023/04/15 13:52:11;;;;;;;;;;;11.90;66.30;;;;;;5034971;28;20338;-79
2023/04/15 13:54:36;;;;;;;;;;;11.90;66.30;;;;;;5047337;28;19928;-78
2023/04/15 13:57:02;;;;;;;;;;;11.90;66.40;;;;;;5034704;28;19923;-78
2023/04/15 13:59:27;;;;;;;;;;;11.80;66.40;;;;;;5047742;28;20383;-78
2023/04/15 14:01:53;;;;;;;;;;;11.80;66.40;;;;;;5047616;28;19921;-78
2023/04/15 14:04:18;;;;;;;;;;;11.80;66.40;;;;;;5034755;28;19928;-78
2023/04/15 14:06:43;;;;;;;;;;;11.70;66.50;;;;;;5049768;28;20370;-78
2023/04/15 14:09:09;;;;;;;;;;;11.70;66.50;;;;;;5051142;28;19974;-78
2023/04/15 14:11:35;;;;;;;;;;;11.70;67.40;;;;;;5049914;28;19924;-76
2023/04/15 14:14:01;;;;;;;;;;;11.70;66.50;;;;;;5051673;28;19920;-78
2023/04/15 14:16:26;;;;;;;;;;;11.70;66.60;;;;;;5071405;28;19940;-78
2023/04/15 14:18:52;;;;;;;;;;;11.60;66.50;;;;;;5070897;28;19924;-79